sensor_id;sensor_type;location;lat;lon;timestamp;pressure;altitude;pressure_sealevel;temperature;humidity
30875;BME280;17581;43.222;27.924;2022-09-09T00:04:29;100990.41;;;21.40;63.44
30875;BME280;17581;43.222;27.924;2022-09-09T00:09:45;100980.56;;;21.31;63.68
30875;BME280;17581;43.222;27.924;2022-09-09T00:12:32;100999.63;;;21.39;63.46
30875;BME280;17581;43.222;27.924;2022-09-09T00:15:14;100985.56;;;21.28;63.54
30875;BME280;17581;43.222;27.924;2022-09-09T00:17:47;100975.09;;;21.31;63.75
30875;BME280;17581;43.222;27.924;2022-09-09T00:20:19;100979.59;;;21.24;63.71
30875;BME280;17581;43.222;27.924;2022-09-09T00:23:12;100968.28;;;21.27;63.64
30875;BME280;17581;43.222;27.924;2022-09-09T00:28:22;100965.81;;;21.17;63.89
30875;BME280;17581;43.222;27.924;2022-09-09T00:30:48;100963.97;;;21.10;63.95
30875;BME280;17581;43.222;27.924;2022-09-09T00:33:16;100960.06;;;21.04;64.17
30875;BME280;17581;43.222;27.924;2022-09-09T00:35:51;100956.84;;;21.01;64.00
30875;BME280;17581;43.222;27.924;2022-09-09T00:38:38;100975.78;;;21.10;64.05
30875;BME280;17581;43.222;27.924;2022-09-09T00:43:41;100961.94;;;21.04;64.30
30875;BME280;17581;43.222;27.924;2022-09-09T00:56:31;100958.94;;;20.99;64.62
30875;BME280;17581;43.222;27.924;2022-09-09T01:01:50;100955.72;;;20.95;64.53
30875;BME280;17581;43.222;27.924;2022-09-09T01:04:21;100959.88;;;20.91;64.69
30875;BME280;17581;43.222;27.924;2022-09-09T01:07:20;100958.88;;;20.84;64.71
30875;BME280;17581;43.222;27.924;2022-09-09T01:09:57;100957.38;;;20.82;64.85
30875;BME280;17581;43.222;27.924;2022-09-09T01:17:50;100942.56;;;20.76;64.85
30875;BME280;17581;43.222;27.924;2022-09-09T01:20:26;100962.06;;;20.73;65.12
30875;BME280;17581;43.222;27.924;2022-09-09T01:28:26;100963.25;;;20.71;65.37
30875;BME280;17581;43.222;27.924;2022-09-09T01:30:52;100964.31;;;20.70;65.15
30875;BME280;17581;43.222;27.924;2022-09-09T01:33:18;100963.75;;;20.74;65.28
30875;BME280;17581;43.222;27.924;2022-09-09T01:35:49;100964.78;;;20.73;65.24
30875;BME280;17581;43.222;27.924;2022-09-09T01:38:20;100958.63;;;20.71;65.38
30875;BME280;17581;43.222;27.924;2022-09-09T01:40:46;100943.66;;;20.67;65.21
30875;BME280;17581;43.222;27.924;2022-09-09T01:43:12;100955.25;;;20.69;65.28
30875;BME280;17581;43.222;27.924;2022-09-09T01:45:40;100942.81;;;20.67;65.51
30875;BME280;17581;43.222;27.924;2022-09-09T01:48:13;100951.66;;;20.69;65.60
30875;BME280;17581;43.222;27.924;2022-09-09T01:50:39;100942.97;;;20.65;65.59
30875;BME280;17581;43.222;27.924;2022-09-09T01:53:04;100934.34;;;20.53;65.60
30875;BME280;17581;43.222;27.924;2022-09-09T01:55:39;100952.19;;;20.64;65.78
30875;BME280;17581;43.222;27.924;2022-09-09T01:58:28;100958.59;;;20.56;66.09
30875;BME280;17581;43.222;27.924;2022-09-09T02:01:37;100949.72;;;20.54;66.01
30875;BME280;17581;43.222;27.924;2022-09-09T02:06:59;100953.47;;;20.53;66.04
30875;BME280;17581;43.222;27.924;2022-09-09T02:09:26;100957.22;;;20.52;66.22
30875;BME280;17581;43.222;27.924;2022-09-09T02:12:08;100960.47;;;20.56;66.33
30875;BME280;17581;43.222;27.924;2022-09-09T02:14:50;100960.66;;;20.54;66.16
30875;BME280;17581;43.222;27.924;2022-09-09T02:17:28;100942.25;;;20.48;66.37
30875;BME280;17581;43.222;27.924;2022-09-09T02:20:08;100948.75;;;20.47;66.52
30875;BME280;17581;43.222;27.924;2022-09-09T02:22:35;100958.94;;;20.53;66.52
30875;BME280;17581;43.222;27.924;2022-09-09T02:25:06;100957.66;;;20.41;66.77
30875;BME280;17581;43.222;27.924;2022-09-09T02:27:33;100962.47;;;20.39;67.15
30875;BME280;17581;43.222;27.924;2022-09-09T02:30:00;100966.22;;;20.38;67.21
30875;BME280;17581;43.222;27.924;2022-09-09T02:32:28;100958.91;;;20.31;67.60
30875;BME280;17581;43.222;27.924;2022-09-09T02:35:02;100964.50;;;20.37;67.79
30875;BME280;17581;43.222;27.924;2022-09-09T02:37:36;100960.91;;;20.37;67.85
30875;BME280;17581;43.222;27.924;2022-09-09T02:40:03;100950.84;;;20.37;67.64
30875;BME280;17581;43.222;27.924;2022-09-09T02:42:29;100949.50;;;20.25;67.78
30875;BME280;17581;43.222;27.924;2022-09-09T02:44:55;100956.53;;;20.28;67.98
30875;BME280;17581;43.222;27.924;2022-09-09T02:47:31;100961.16;;;20.27;68.32
30875;BME280;17581;43.222;27.924;2022-09-09T02:50:16;100958.09;;;20.30;68.31
30875;BME280;17581;43.222;27.924;2022-09-09T02:55:59;100958.63;;;20.18;68.77
30875;BME280;17581;43.222;27.924;2022-09-09T02:58:27;100949.25;;;20.12;69.00
30875;BME280;17581;43.222;27.924;2022-09-09T03:00:53;100961.16;;;20.19;69.05
30875;BME280;17581;43.222;27.924;2022-09-09T03:03:20;100950.28;;;20.11;69.08
30875;BME280;17581;43.222;27.924;2022-09-09T03:05:47;100948.06;;;20.15;69.07
30875;BME280;17581;43.222;27.924;2022-09-09T03:08:12;100952.31;;;20.17;69.05
30875;BME280;17581;43.222;27.924;2022-09-09T03:10:38;100959.81;;;20.15;69.00
30875;BME280;17581;43.222;27.924;2022-09-09T03:13:05;100960.84;;;20.14;69.16
30875;BME280;17581;43.222;27.924;2022-09-09T03:15:32;100962.72;;;20.14;69.30
30875;BME280;17581;43.222;27.924;2022-09-09T03:17:58;100958.47;;;20.11;69.29
30875;BME280;17581;43.222;27.924;2022-09-09T03:20:25;100967.75;;;20.02;69.84
30875;BME280;17581;43.222;27.924;2022-09-09T03:22:52;100965.38;;;19.99;69.69
30875;BME280;17581;43.222;27.924;2022-09-09T03:25:18;100971.34;;;20.02;69.98
30875;BME280;17581;43.222;27.924;2022-09-09T03:27:44;100974.59;;;19.98;70.04
30875;BME280;17581;43.222;27.924;2022-09-09T03:30:10;100965.88;;;19.94;70.34
30875;BME280;17581;43.222;27.924;2022-09-09T03:32:36;100966.78;;;19.87;70.83
30875;BME280;17581;43.222;27.924;2022-09-09T03:35:02;100964.06;;;19.87;70.79
30875;BME280;17581;43.222;27.924;2022-09-09T03:37:29;100962.19;;;19.87;70.96
30875;BME280;17581;43.222;27.924;2022-09-09T03:39:55;100963.38;;;19.85;71.03
30875;BME280;17581;43.222;27.924;2022-09-09T03:42:21;100966.59;;;19.88;71.41
30875;BME280;17581;43.222;27.924;2022-09-09T03:44:47;100967.75;;;19.94;71.25
30875;BME280;17581;43.222;27.924;2022-09-09T03:47:16;100962.22;;;20.10;71.08
30875;BME280;17581;43.222;27.924;2022-09-09T03:49:41;100966.69;;;20.03;71.11
30875;BME280;17581;43.222;27.924;2022-09-09T03:52:08;100959.34;;;20.03;71.15
30875;BME280;17581;43.222;27.924;2022-09-09T03:54:34;100971.81;;;20.06;71.05
30875;BME280;17581;43.222;27.924;2022-09-09T03:57:00;100958.34;;;20.04;71.07
30875;BME280;17581;43.222;27.924;2022-09-09T03:59:25;100974.53;;;20.06;71.23
30875;BME280;17581;43.222;27.924;2022-09-09T04:01:51;100954.75;;;20.04;70.97
30875;BME280;17581;43.222;27.924;2022-09-09T04:04:17;100955.78;;;20.03;71.49
30875;BME280;17581;43.222;27.924;2022-09-09T04:06:42;100957.19;;;19.99;71.65
30875;BME280;17581;43.222;27.924;2022-09-09T04:09:08;100962.59;;;20.07;71.46
30875;BME280;17581;43.222;27.924;2022-09-09T04:11:34;100965.97;;;20.09;71.34
30875;BME280;17581;43.222;27.924;2022-09-09T04:13:59;100953.72;;;20.05;71.18
30875;BME280;17581;43.222;27.924;2022-09-09T04:16:25;100956.28;;;20.06;71.49
30875;BME280;17581;43.222;27.924;2022-09-09T04:18:51;100963.59;;;20.14;71.30
30875;BME280;17581;43.222;27.924;2022-09-09T04:21:18;100965.41;;;20.22;71.27
30875;BME280;17581;43.222;27.924;2022-09-09T04:23:43;100967.31;;;20.21;71.49
30875;BME280;17581;43.222;27.924;2022-09-09T04:26:09;100965.91;;;20.25;71.22
30875;BME280;17581;43.222;27.924;2022-09-09T04:28:36;100963.91;;;20.19;71.52
30875;BME280;17581;43.222;27.924;2022-09-09T04:31:07;100951.81;;;20.14;71.67
30875;BME280;17581;43.222;27.924;2022-09-09T04:33:33;100957.44;;;20.12;72.04
30875;BME280;17581;43.222;27.924;2022-09-09T04:35:58;100974.09;;;20.25;72.10
30875;BME280;17581;43.222;27.924;2022-09-09T04:38:24;100958.75;;;20.24;72.06
30875;BME280;17581;43.222;27.924;2022-09-09T04:40:51;100956.72;;;20.26;71.67
30875;BME280;17581;43.222;27.924;2022-09-09T04:43:17;100984.44;;;20.46;71.88
30875;BME280;17581;43.222;27.924;2022-09-09T04:45:47;100977.78;;;20.48;71.65
30875;BME280;17581;43.222;27.924;2022-09-09T04:48:13;100978.22;;;20.60;71.56
30875;BME280;17581;43.222;27.924;2022-09-09T04:50:39;100984.47;;;20.69;71.18
30875;BME280;17581;43.222;27.924;2022-09-09T04:53:06;100964.59;;;20.75;71.16
30875;BME280;17581;43.222;27.924;2022-09-09T04:55:32;100961.88;;;20.75;71.45
30875;BME280;17581;43.222;27.924;2022-09-09T04:58:05;100973.41;;;20.85;71.39
30875;BME280;17581;43.222;27.924;2022-09-09T05:00:32;100963.41;;;20.92;71.37
30875;BME280;17581;43.222;27.924;2022-09-09T05:03:02;100966.09;;;21.00;71.23
30875;BME280;17581;43.222;27.924;2022-09-09T05:05:28;100974.09;;;21.09;71.23
30875;BME280;17581;43.222;27.924;2022-09-09T05:07:53;100978.63;;;21.17;71.21
30875;BME280;17581;43.222;27.924;2022-09-09T05:10:19;100979.59;;;21.24;71.01
30875;BME280;17581;43.222;27.924;2022-09-09T05:12:52;100957.78;;;21.16;70.96
30875;BME280;17581;43.222;27.924;2022-09-09T05:15:18;100965.94;;;21.39;70.83
30875;BME280;17581;43.222;27.924;2022-09-09T05:17:43;100970.13;;;21.49;70.65
30875;BME280;17581;43.222;27.924;2022-09-09T05:20:09;100968.50;;;21.55;70.53
30875;BME280;17581;43.222;27.924;2022-09-09T05:22:34;100974.00;;;21.69;70.34
30875;BME280;17581;43.222;27.924;2022-09-09T05:25:01;100971.63;;;21.81;70.18
30875;BME280;17581;43.222;27.924;2022-09-09T05:27:26;100972.75;;;21.87;69.94
30875;BME280;17581;43.222;27.924;2022-09-09T05:29:52;100967.22;;;21.95;69.81
30875;BME280;17581;43.222;27.924;2022-09-09T05:32:17;100959.75;;;22.03;69.43
30875;BME280;17581;43.222;27.924;2022-09-09T05:34:42;100959.91;;;22.16;69.25
30875;BME280;17581;43.222;27.924;2022-09-09T05:37:08;100942.28;;;22.04;69.43
30875;BME280;17581;43.222;27.924;2022-09-09T05:39:34;100941.59;;;22.02;69.69
30875;BME280;17581;43.222;27.924;2022-09-09T05:42:02;100959.06;;;22.16;69.70
30875;BME280;17581;43.222;27.924;2022-09-09T05:44:29;100938.44;;;22.20;69.46
30875;BME280;17581;43.222;27.924;2022-09-09T05:46:54;100961.06;;;22.43;69.18
30875;BME280;17581;43.222;27.924;2022-09-09T05:49:20;100943.69;;;22.36;69.18
30875;BME280;17581;43.222;27.924;2022-09-09T05:51:46;100952.22;;;22.41;69.35
30875;BME280;17581;43.222;27.924;2022-09-09T05:54:13;100956.13;;;22.53;69.17
30875;BME280;17581;43.222;27.924;2022-09-09T05:56:41;100957.03;;;22.60;69.28
30875;BME280;17581;43.222;27.924;2022-09-09T05:59:07;100950.41;;;22.69;69.19
30875;BME280;17581;43.222;27.924;2022-09-09T06:01:34;100949.06;;;22.80;69.13
30875;BME280;17581;43.222;27.924;2022-09-09T06:04:00;100940.94;;;22.72;69.66
30875;BME280;17581;43.222;27.924;2022-09-09T06:06:36;100953.69;;;22.80;70.17
30875;BME280;17581;43.222;27.924;2022-09-09T06:09:05;100950.94;;;22.80;70.43
30875;BME280;17581;43.222;27.924;2022-09-09T06:11:37;100942.31;;;22.83;70.30
30875;BME280;17581;43.222;27.924;2022-09-09T06:14:04;100953.22;;;22.97;70.77
30875;BME280;17581;43.222;27.924;2022-09-09T06:16:31;100953.69;;;23.01;70.90
30875;BME280;17581;43.222;27.924;2022-09-09T06:19:00;100942.84;;;22.93;71.07
30875;BME280;17581;43.222;27.924;2022-09-09T06:21:27;100956.66;;;23.06;71.24
30875;BME280;17581;43.222;27.924;2022-09-09T06:23:53;100956.09;;;23.10;71.26
30875;BME280;17581;43.222;27.924;2022-09-09T06:26:21;100953.78;;;23.14;71.52
30875;BME280;17581;43.222;27.924;2022-09-09T06:28:49;100963.53;;;23.16;71.39
30875;BME280;17581;43.222;27.924;2022-09-09T06:31:16;100965.66;;;23.21;71.20
30875;BME280;17581;43.222;27.924;2022-09-09T06:33:43;100967.69;;;23.12;71.63
30875;BME280;17581;43.222;27.924;2022-09-09T06:36:14;100963.22;;;23.05;72.04
30875;BME280;17581;43.222;27.924;2022-09-09T06:38:41;100962.88;;;23.14;72.09
30875;BME280;17581;43.222;27.924;2022-09-09T06:41:08;100964.09;;;23.12;71.85
30875;BME280;17581;43.222;27.924;2022-09-09T06:43:34;100969.81;;;23.10;72.01
30875;BME280;17581;43.222;27.924;2022-09-09T06:46:09;100969.88;;;23.17;71.90
30875;BME280;17581;43.222;27.924;2022-09-09T06:48:36;100974.56;;;23.23;71.71
30875;BME280;17581;43.222;27.924;2022-09-09T06:51:17;100990.22;;;23.29;71.99
30875;BME280;17581;43.222;27.924;2022-09-09T06:53:44;100985.38;;;23.31;72.13
30875;BME280;17581;43.222;27.924;2022-09-09T06:58:40;100973.75;;;23.29;71.83
30875;BME280;17581;43.222;27.924;2022-09-09T07:01:10;100994.06;;;23.35;72.50
30875;BME280;17581;43.222;27.924;2022-09-09T07:03:38;100988.13;;;23.31;72.59
30875;BME280;17581;43.222;27.924;2022-09-09T07:06:04;100971.16;;;23.21;73.16
30875;BME280;17581;43.222;27.924;2022-09-09T07:08:29;100978.34;;;23.22;73.26
30875;BME280;17581;43.222;27.924;2022-09-09T07:11:04;100984.75;;;23.29;73.59
30875;BME280;17581;43.222;27.924;2022-09-09T07:13:30;100985.28;;;23.39;73.72
30875;BME280;17581;43.222;27.924;2022-09-09T07:18:31;100990.84;;;23.52;73.05
30875;BME280;17581;43.222;27.924;2022-09-09T07:20:58;100988.41;;;23.64;72.94
30875;BME280;17581;43.222;27.924;2022-09-09T07:23:24;100985.91;;;23.69;73.18
30875;BME280;17581;43.222;27.924;2022-09-09T07:25:51;100990.56;;;23.68;73.41
30875;BME280;17581;43.222;27.924;2022-09-09T07:28:22;100992.69;;;23.73;73.48
30875;BME280;17581;43.222;27.924;2022-09-09T07:30:59;100985.97;;;23.75;73.39
30875;BME280;17581;43.222;27.924;2022-09-09T07:33:31;100986.44;;;23.85;73.13
30875;BME280;17581;43.222;27.924;2022-09-09T07:36:09;100980.97;;;23.92;72.86
30875;BME280;17581;43.222;27.924;2022-09-09T07:38:55;100983.13;;;23.97;73.10
30875;BME280;17581;43.222;27.924;2022-09-09T07:41:27;100992.41;;;23.96;73.18
30875;BME280;17581;43.222;27.924;2022-09-09T07:43:53;100988.84;;;24.02;73.19
30875;BME280;17581;43.222;27.924;2022-09-09T07:46:20;100997.06;;;23.95;73.22
30875;BME280;17581;43.222;27.924;2022-09-09T07:48:48;100995.78;;;23.98;72.75
30875;BME280;17581;43.222;27.924;2022-09-09T07:51:36;101003.44;;;24.02;71.43
30875;BME280;17581;43.222;27.924;2022-09-09T07:54:05;100992.88;;;23.99;71.58
30875;BME280;17581;43.222;27.924;2022-09-09T07:56:33;100989.94;;;24.07;72.38
30875;BME280;17581;43.222;27.924;2022-09-09T07:58:58;100990.84;;;24.14;70.60
30875;BME280;17581;43.222;27.924;2022-09-09T08:01:30;100995.72;;;24.19;69.25
30875;BME280;17581;43.222;27.924;2022-09-09T08:03:57;101001.06;;;24.27;69.40
30875;BME280;17581;43.222;27.924;2022-09-09T08:06:38;100995.56;;;24.27;69.02
30875;BME280;17581;43.222;27.924;2022-09-09T08:09:06;100996.88;;;24.31;67.82
30875;BME280;17581;43.222;27.924;2022-09-09T08:11:33;100988.84;;;24.36;67.87
30875;BME280;17581;43.222;27.924;2022-09-09T08:13:59;100992.66;;;24.42;68.33
30875;BME280;17581;43.222;27.924;2022-09-09T08:16:27;100990.97;;;24.47;68.66
30875;BME280;17581;43.222;27.924;2022-09-09T08:18:53;100985.50;;;24.54;68.44
30875;BME280;17581;43.222;27.924;2022-09-09T08:21:26;100986.19;;;24.69;67.27
30875;BME280;17581;43.222;27.924;2022-09-09T08:23:55;100977.53;;;24.78;66.06
30875;BME280;17581;43.222;27.924;2022-09-09T08:26:23;100969.09;;;24.86;64.91
30875;BME280;17581;43.222;27.924;2022-09-09T08:28:50;100972.94;;;24.85;64.57
30875;BME280;17581;43.222;27.924;2022-09-09T08:31:23;100962.75;;;24.92;64.84
30875;BME280;17581;43.222;27.924;2022-09-09T08:33:49;100971.44;;;24.96;65.28
30875;BME280;17581;43.222;27.924;2022-09-09T08:36:18;100958.97;;;25.00;66.06
30875;BME280;17581;43.222;27.924;2022-09-09T08:38:49;100956.41;;;24.99;65.56
30875;BME280;17581;43.222;27.924;2022-09-09T08:41:35;100952.19;;;25.03;66.20
30875;BME280;17581;43.222;27.924;2022-09-09T08:50:07;100965.31;;;24.87;66.47
30875;BME280;17581;43.222;27.924;2022-09-09T08:58:15;100961.50;;;24.82;66.79
30875;BME280;17581;43.222;27.924;2022-09-09T09:03:28;100943.66;;;24.71;65.92
30875;BME280;17581;43.222;27.924;2022-09-09T09:06:29;100940.31;;;24.82;65.24
30875;BME280;17581;43.222;27.924;2022-09-09T09:11:57;100944.13;;;25.08;65.62
30875;BME280;17581;43.222;27.924;2022-09-09T09:14:28;100936.94;;;25.20;64.80
30875;BME280;17581;43.222;27.924;2022-09-09T09:16:58;100936.06;;;25.39;64.19
30875;BME280;17581;43.222;27.924;2022-09-09T09:19:25;100937.78;;;25.40;64.19
30875;BME280;17581;43.222;27.924;2022-09-09T09:24:28;100933.97;;;25.41;63.06
30875;BME280;17581;43.222;27.924;2022-09-09T09:26:58;100933.94;;;25.48;62.27
30875;BME280;17581;43.222;27.924;2022-09-09T09:29:26;100952.59;;;25.32;63.04
30875;BME280;17581;43.222;27.924;2022-09-09T09:31:56;100958.09;;;25.39;63.33
30875;BME280;17581;43.222;27.924;2022-09-09T09:34:23;100951.97;;;25.37;63.15
30875;BME280;17581;43.222;27.924;2022-09-09T09:36:57;100953.88;;;25.43;61.92
30875;BME280;17581;43.222;27.924;2022-09-09T09:39:27;100949.66;;;25.34;62.60
30875;BME280;17581;43.222;27.924;2022-09-09T09:41:54;100960.00;;;25.38;63.12
30875;BME280;17581;43.222;27.924;2022-09-09T09:44:23;100957.50;;;25.50;63.66
30875;BME280;17581;43.222;27.924;2022-09-09T09:46:49;100969.56;;;25.49;62.62
30875;BME280;17581;43.222;27.924;2022-09-09T09:49:15;100958.75;;;25.34;63.28
30875;BME280;17581;43.222;27.924;2022-09-09T09:51:41;100971.69;;;25.34;63.42
30875;BME280;17581;43.222;27.924;2022-09-09T09:54:14;100955.56;;;25.51;63.72
30875;BME280;17581;43.222;27.924;2022-09-09T09:56:44;100931.22;;;25.54;63.24
30875;BME280;17581;43.222;27.924;2022-09-09T10:01:54;100945.75;;;25.87;62.32
30875;BME280;17581;43.222;27.924;2022-09-09T10:04:21;100936.44;;;25.82;61.96
30875;BME280;17581;43.222;27.924;2022-09-09T10:06:49;100939.44;;;25.74;62.41
30875;BME280;17581;43.222;27.924;2022-09-09T10:09:27;100959.16;;;25.64;62.11
30875;BME280;17581;43.222;27.924;2022-09-09T10:12:38;100949.22;;;25.57;62.71
30875;BME280;17581;43.222;27.924;2022-09-09T10:23:57;100940.22;;;25.87;62.89
30875;BME280;17581;43.222;27.924;2022-09-09T10:26:52;100935.72;;;25.99;62.43
30875;BME280;17581;43.222;27.924;2022-09-09T10:32:09;100923.50;;;26.40;60.81
30875;BME280;17581;43.222;27.924;2022-09-09T10:34:56;100932.34;;;26.48;60.15
30875;BME280;17581;43.222;27.924;2022-09-09T10:39:50;100931.47;;;26.55;60.92
30875;BME280;17581;43.222;27.924;2022-09-09T10:42:26;100923.63;;;26.51;60.55
30875;BME280;17581;43.222;27.924;2022-09-09T10:45:20;100926.38;;;26.51;60.94
30875;BME280;17581;43.222;27.924;2022-09-09T10:50:53;100912.00;;;26.43;59.81
30875;BME280;17581;43.222;27.924;2022-09-09T10:56:05;100915.22;;;26.71;59.34
30875;BME280;17581;43.222;27.924;2022-09-09T10:59:00;100933.31;;;26.98;59.16
30875;BME280;17581;43.222;27.924;2022-09-09T11:01:44;100929.59;;;27.11;58.13
30875;BME280;17581;43.222;27.924;2022-09-09T11:04:23;100918.00;;;27.02;58.54
30875;BME280;17581;43.222;27.924;2022-09-09T11:06:56;100896.31;;;26.81;58.62
30875;BME280;17581;43.222;27.924;2022-09-09T11:09:27;100917.28;;;26.82;59.36
30875;BME280;17581;43.222;27.924;2022-09-09T11:11:56;100913.72;;;26.75;58.64
30875;BME280;17581;43.222;27.924;2022-09-09T11:14:34;100915.22;;;26.71;59.32
30875;BME280;17581;43.222;27.924;2022-09-09T11:17:25;100922.16;;;26.87;59.37
30875;BME280;17581;43.222;27.924;2022-09-09T11:19:52;100918.44;;;26.99;58.28
30875;BME280;17581;43.222;27.924;2022-09-09T11:24:59;100934.22;;;26.92;59.06
30875;BME280;17581;43.222;27.924;2022-09-09T11:41:51;100920.13;;;26.38;61.29
30875;BME280;17581;43.222;27.924;2022-09-09T11:44:21;100907.97;;;26.45;61.30
30875;BME280;17581;43.222;27.924;2022-09-09T11:46:51;100913.28;;;26.47;61.20
30875;BME280;17581;43.222;27.924;2022-09-09T11:49:27;100896.72;;;26.47;61.29
30875;BME280;17581;43.222;27.924;2022-09-09T11:51:53;100918.63;;;26.67;61.46
30875;BME280;17581;43.222;27.924;2022-09-09T11:54:33;100908.44;;;26.67;61.18
30875;BME280;17581;43.222;27.924;2022-09-09T11:57:30;100892.78;;;26.61;60.84
30875;BME280;17581;43.222;27.924;2022-09-09T11:59:57;100891.72;;;26.62;60.53
30875;BME280;17581;43.222;27.924;2022-09-09T12:02:27;100895.84;;;26.53;60.81
30875;BME280;17581;43.222;27.924;2022-09-09T12:10:26;100894.78;;;26.54;62.15
30875;BME280;17581;43.222;27.924;2022-09-09T12:12:53;100881.09;;;26.34;62.15
30875;BME280;17581;43.222;27.924;2022-09-09T12:15:23;100890.31;;;26.53;61.96
30875;BME280;17581;43.222;27.924;2022-09-09T12:17:55;100887.72;;;26.58;61.46
30875;BME280;17581;43.222;27.924;2022-09-09T12:23:13;100879.56;;;26.70;61.40
30875;BME280;17581;43.222;27.924;2022-09-09T12:31:04;100852.94;;;26.57;59.05
30875;BME280;17581;43.222;27.924;2022-09-09T12:33:37;100865.41;;;26.66;59.84
30875;BME280;17581;43.222;27.924;2022-09-09T12:36:12;100870.22;;;26.71;59.75
30875;BME280;17581;43.222;27.924;2022-09-09T12:38:40;100865.84;;;26.63;59.91
30875;BME280;17581;43.222;27.924;2022-09-09T12:41:15;100864.78;;;26.58;60.28
30875;BME280;17581;43.222;27.924;2022-09-09T12:43:44;100857.59;;;26.57;60.45
30875;BME280;17581;43.222;27.924;2022-09-09T12:46:30;100864.75;;;26.64;58.87
30875;BME280;17581;43.222;27.924;2022-09-09T12:48:59;100857.88;;;26.73;58.46
30875;BME280;17581;43.222;27.924;2022-09-09T12:51:29;100866.81;;;26.75;58.73
30875;BME280;17581;43.222;27.924;2022-09-09T12:53:55;100853.63;;;26.77;59.11
30875;BME280;17581;43.222;27.924;2022-09-09T12:56:24;100858.25;;;26.83;58.46
30875;BME280;17581;43.222;27.924;2022-09-09T12:58:53;100855.66;;;26.88;58.89
30875;BME280;17581;43.222;27.924;2022-09-09T13:01:30;100850.16;;;26.88;57.52
30875;BME280;17581;43.222;27.924;2022-09-09T13:03:56;100835.28;;;26.58;58.57
30875;BME280;17581;43.222;27.924;2022-09-09T13:06:27;100838.78;;;26.47;58.85
30875;BME280;17581;43.222;27.924;2022-09-09T13:08:56;100853.44;;;26.47;59.59
30875;BME280;17581;43.222;27.924;2022-09-09T13:11:34;100849.38;;;26.50;59.70
30875;BME280;17581;43.222;27.924;2022-09-09T13:14:01;100842.00;;;26.44;59.86
30875;BME280;17581;43.222;27.924;2022-09-09T13:16:33;100836.84;;;26.54;60.47
30875;BME280;17581;43.222;27.924;2022-09-09T13:19:08;100811.09;;;26.35;60.34
30875;BME280;17581;43.222;27.924;2022-09-09T13:21:38;100833.03;;;26.48;60.29
30875;BME280;17581;43.222;27.924;2022-09-09T13:24:06;100825.34;;;26.57;60.33
30875;BME280;17581;43.222;27.924;2022-09-09T13:26:33;100830.94;;;26.75;59.96
30875;BME280;17581;43.222;27.924;2022-09-09T13:29:17;100830.00;;;26.88;60.18
30875;BME280;17581;43.222;27.924;2022-09-09T13:31:43;100827.72;;;27.03;59.58
30875;BME280;17581;43.222;27.924;2022-09-09T13:34:26;100840.16;;;27.12;58.92
30875;BME280;17581;43.222;27.924;2022-09-09T13:37:26;100829.28;;;27.17;58.79
30875;BME280;17581;43.222;27.924;2022-09-09T13:39:53;100820.25;;;27.03;59.42
30875;BME280;17581;43.222;27.924;2022-09-09T13:42:33;100815.97;;;26.89;59.48
30875;BME280;17581;43.222;27.924;2022-09-09T13:45:03;100820.78;;;26.69;59.58
30875;BME280;17581;43.222;27.924;2022-09-09T13:47:36;100817.69;;;26.59;59.52
30875;BME280;17581;43.222;27.924;2022-09-09T13:50:21;100815.06;;;26.64;59.79
30875;BME280;17581;43.222;27.924;2022-09-09T13:52:48;100818.41;;;26.48;60.97
30875;BME280;17581;43.222;27.924;2022-09-09T13:55:15;100820.38;;;26.41;60.94
30875;BME280;17581;43.222;27.924;2022-09-09T13:57:53;100824.81;;;26.42;61.35
30875;BME280;17581;43.222;27.924;2022-09-09T14:00:20;100819.19;;;26.55;60.93
30875;BME280;17581;43.222;27.924;2022-09-09T14:02:48;100815.56;;;26.55;61.01
30875;BME280;17581;43.222;27.924;2022-09-09T14:05:13;100832.16;;;26.79;60.29
30875;BME280;17581;43.222;27.924;2022-09-09T14:07:41;100816.47;;;26.73;60.54
30875;BME280;17581;43.222;27.924;2022-09-09T14:10:08;100821.78;;;26.75;60.36
30875;BME280;17581;43.222;27.924;2022-09-09T14:12:38;100819.22;;;26.80;59.69
30875;BME280;17581;43.222;27.924;2022-09-09T14:15:05;100801.03;;;26.72;60.12
30875;BME280;17581;43.222;27.924;2022-09-09T14:17:32;100796.94;;;26.81;59.57
30875;BME280;17581;43.222;27.924;2022-09-09T14:19:59;100792.91;;;26.77;60.00
30875;BME280;17581;43.222;27.924;2022-09-09T14:22:24;100782.47;;;26.79;58.85
30875;BME280;17581;43.222;27.924;2022-09-09T14:24:51;100791.19;;;26.76;59.12
30875;BME280;17581;43.222;27.924;2022-09-09T14:27:17;100788.19;;;26.84;59.16
30875;BME280;17581;43.222;27.924;2022-09-09T14:29:44;100789.00;;;26.85;58.88
30875;BME280;17581;43.222;27.924;2022-09-09T14:32:10;100790.75;;;26.79;59.49
30875;BME280;17581;43.222;27.924;2022-09-09T14:34:37;100784.00;;;26.75;59.76
30875;BME280;17581;43.222;27.924;2022-09-09T14:37:03;100773.28;;;26.61;59.90
30875;BME280;17581;43.222;27.924;2022-09-09T14:39:30;100770.88;;;26.71;60.16
30875;BME280;17581;43.222;27.924;2022-09-09T14:41:55;100769.16;;;26.70;60.13
30875;BME280;17581;43.222;27.924;2022-09-09T14:44:21;100775.16;;;26.91;59.06
30875;BME280;17581;43.222;27.924;2022-09-09T14:46:47;100766.50;;;26.88;58.31
30875;BME280;17581;43.222;27.924;2022-09-09T14:49:15;100792.34;;;26.93;58.11
30875;BME280;17581;43.222;27.924;2022-09-09T14:51:41;100793.41;;;26.92;58.53
30875;BME280;17581;43.222;27.924;2022-09-09T14:54:07;100788.66;;;26.81;59.00
30875;BME280;17581;43.222;27.924;2022-09-09T14:56:33;100774.41;;;26.84;58.92